sensor_id;sensor_type;location;lat;lon;timestamp;P1;durP1;ratioP1;P2;durP2;ratioP2
17614;SDS011;8926;49.720;6.576;2023-07-02T00:01:07;1.00;;;1.00;;
17614;SDS011;8926;49.720;6.576;2023-07-02T00:03:32;1.20;;;1.10;;
17614;SDS011;8926;49.720;6.576;2023-07-02T00:05:57;1.10;;;1.07;;
17614;SDS011;8926;49.720;6.576;2023-07-02T00:08:22;0.97;;;0.97;;
17614;SDS011;8926;49.720;6.576;2023-07-02T00:10:48;1.27;;;1.27;;
17614;SDS011;8926;49.720;6.576;2023-07-02T00:13:14;1.27;;;1.17;;
17614;SDS011;8926;49.720;6.576;2023-07-02T00:15:40;1.87;;;1.40;;
17614;SDS011;8926;49.720;6.576;2023-07-02T00:18:05;1.63;;;1.50;;
17614;SDS011;8926;49.720;6.576;2023-07-02T00:20:31;1.73;;;1.63;;
17614;SDS011;8926;49.720;6.576;2023-07-02T00:23:02;1.93;;;1.83;;
17614;SDS011;8926;49.720;6.576;2023-07-02T00:25:28;1.63;;;1.53;;
17614;SDS011;8926;49.720;6.576;2023-07-02T00:27:53;2.10;;;2.00;;
17614;SDS011;8926;49.720;6.576;2023-07-02T00:30:18;1.73;;;1.63;;
17614;SDS011;8926;49.720;6.576;2023-07-02T00:32:44;1.70;;;1.60;;
17614;SDS011;8926;49.720;6.576;2023-07-02T00:35:09;1.40;;;1.40;;
17614;SDS011;8926;49.720;6.576;2023-07-02T00:37:34;1.80;;;1.70;;
17614;SDS011;8926;49.720;6.576;2023-07-02T00:40:00;1.77;;;1.67;;
17614;SDS011;8926;49.720;6.576;2023-07-02T00:42:25;2.10;;;1.90;;
17614;SDS011;8926;49.720;6.576;2023-07-02T00:44:54;3.20;;;2.03;;
17614;SDS011;8926;49.720;6.576;2023-07-02T00:47:22;2.33;;;2.10;;
17614;SDS011;8926;49.720;6.576;2023-07-02T00:49:48;2.53;;;2.33;;
17614;SDS011;8926;49.720;6.576;2023-07-02T00:52:13;2.20;;;2.10;;
17614;SDS011;8926;49.720;6.576;2023-07-02T00:54:38;2.80;;;2.30;;
17614;SDS011;8926;49.720;6.576;2023-07-02T00:57:05;2.00;;;1.90;;
17614;SDS011;8926;49.720;6.576;2023-07-02T00:59:32;2.30;;;2.10;;
17614;SDS011;8926;49.720;6.576;2023-07-02T01:02:03;2.00;;;1.90;;
17614;SDS011;8926;49.720;6.576;2023-07-02T01:04:30;2.50;;;2.30;;
17614;SDS011;8926;49.720;6.576;2023-07-02T01:06:56;2.13;;;2.03;;
17614;SDS011;8926;49.720;6.576;2023-07-02T01:09:22;2.00;;;1.90;;
17614;SDS011;8926;49.720;6.576;2023-07-02T01:12:07;2.30;;;2.10;;
17614;SDS011;8926;49.720;6.576;2023-07-02T01:14:35;3.77;;;2.93;;
17614;SDS011;8926;49.720;6.576;2023-07-02T01:17:03;3.17;;;2.97;;
17614;SDS011;8926;49.720;6.576;2023-07-02T01:19:49;2.17;;;2.07;;
17614;SDS011;8926;49.720;6.576;2023-07-02T01:22:20;2.67;;;2.47;;
17614;SDS011;8926;49.720;6.576;2023-07-02T01:24:49;2.50;;;2.30;;
17614;SDS011;8926;49.720;6.576;2023-07-02T01:27:18;2.47;;;2.37;;
17614;SDS011;8926;49.720;6.576;2023-07-02T01:29:44;2.90;;;2.60;;
17614;SDS011;8926;49.720;6.576;2023-07-02T01:32:11;3.20;;;2.80;;
17614;SDS011;8926;49.720;6.576;2023-07-02T01:34:37;3.10;;;2.90;;
17614;SDS011;8926;49.720;6.576;2023-07-02T01:37:03;3.10;;;2.83;;
17614;SDS011;8926;49.720;6.576;2023-07-02T01:39:29;2.77;;;2.57;;
17614;SDS011;8926;49.720;6.576;2023-07-02T01:41:55;2.97;;;2.67;;
17614;SDS011;8926;49.720;6.576;2023-07-02T01:44:32;3.10;;;2.90;;
17614;SDS011;8926;49.720;6.576;2023-07-02T01:46:58;2.57;;;2.37;;
17614;SDS011;8926;49.720;6.576;2023-07-02T01:49:24;8.87;;;2.93;;
17614;SDS011;8926;49.720;6.576;2023-07-02T01:51:49;2.97;;;2.73;;
17614;SDS011;8926;49.720;6.576;2023-07-02T01:54:18;3.63;;;3.33;;
17614;SDS011;8926;49.720;6.576;2023-07-02T01:56:44;3.93;;;3.37;;
17614;SDS011;8926;49.720;6.576;2023-07-02T01:59:10;3.13;;;2.93;;
17614;SDS011;8926;49.720;6.576;2023-07-02T02:01:36;2.70;;;2.50;;
17614;SDS011;8926;49.720;6.576;2023-07-02T02:04:01;2.77;;;2.57;;
17614;SDS011;8926;49.720;6.576;2023-07-02T02:06:27;2.67;;;2.47;;
17614;SDS011;8926;49.720;6.576;2023-07-02T02:08:52;2.50;;;2.30;;
17614;SDS011;8926;49.720;6.576;2023-07-02T02:11:17;3.17;;;2.93;;
17614;SDS011;8926;49.720;6.576;2023-07-02T02:13:42;2.90;;;2.70;;
17614;SDS011;8926;49.720;6.576;2023-07-02T02:16:08;3.10;;;2.90;;
17614;SDS011;8926;49.720;6.576;2023-07-02T02:18:33;3.00;;;2.70;;
17614;SDS011;8926;49.720;6.576;2023-07-02T02:20:59;3.30;;;2.90;;
17614;SDS011;8926;49.720;6.576;2023-07-02T02:23:25;2.70;;;2.50;;
17614;SDS011;8926;49.720;6.576;2023-07-02T02:25:50;3.10;;;2.90;;
17614;SDS011;8926;49.720;6.576;2023-07-02T02:28:15;3.13;;;2.93;;
17614;SDS011;8926;49.720;6.576;2023-07-02T02:30:41;3.20;;;3.00;;
17614;SDS011;8926;49.720;6.576;2023-07-02T02:33:06;3.53;;;3.23;;
17614;SDS011;8926;49.720;6.576;2023-07-02T02:35:31;3.23;;;2.97;;
17614;SDS011;8926;49.720;6.576;2023-07-02T02:37:57;3.50;;;3.30;;
17614;SDS011;8926;49.720;6.576;2023-07-02T02:40:22;3.37;;;3.07;;
17614;SDS011;8926;49.720;6.576;2023-07-02T02:42:47;3.17;;;2.87;;
17614;SDS011;8926;49.720;6.576;2023-07-02T02:45:13;2.70;;;2.50;;
17614;SDS011;8926;49.720;6.576;2023-07-02T02:47:38;3.00;;;2.80;;
17614;SDS011;8926;49.720;6.576;2023-07-02T02:50:05;3.40;;;3.10;;
17614;SDS011;8926;49.720;6.576;2023-07-02T02:52:30;3.40;;;3.13;;
17614;SDS011;8926;49.720;6.576;2023-07-02T02:54:56;2.87;;;2.67;;
17614;SDS011;8926;49.720;6.576;2023-07-02T02:57:21;3.60;;;3.30;;
17614;SDS011;8926;49.720;6.576;2023-07-02T02:59:46;3.20;;;3.00;;
17614;SDS011;8926;49.720;6.576;2023-07-02T03:02:12;3.03;;;2.83;;
17614;SDS011;8926;49.720;6.576;2023-07-02T03:04:37;3.00;;;2.80;;
17614;SDS011;8926;49.720;6.576;2023-07-02T03:07:06;3.00;;;2.73;;
17614;SDS011;8926;49.720;6.576;2023-07-02T03:09:32;2.90;;;2.63;;
17614;SDS011;8926;49.720;6.576;2023-07-02T03:11:58;3.33;;;3.03;;
17614;SDS011;8926;49.720;6.576;2023-07-02T03:14:23;2.80;;;2.60;;
17614;SDS011;8926;49.720;6.576;2023-07-02T03:16:48;3.20;;;2.90;;
17614;SDS011;8926;49.720;6.576;2023-07-02T03:19:14;4.07;;;3.77;;
17614;SDS011;8926;49.720;6.576;2023-07-02T03:21:41;3.53;;;3.03;;
17614;SDS011;8926;49.720;6.576;2023-07-02T03:24:07;3.27;;;3.00;;
17614;SDS011;8926;49.720;6.576;2023-07-02T03:26:34;3.60;;;3.30;;
17614;SDS011;8926;49.720;6.576;2023-07-02T03:29:00;4.10;;;3.80;;
17614;SDS011;8926;49.720;6.576;2023-07-02T03:31:25;4.80;;;4.33;;
17614;SDS011;8926;49.720;6.576;2023-07-02T03:33:50;5.80;;;5.30;;
17614;SDS011;8926;49.720;6.576;2023-07-02T03:36:15;7.00;;;6.30;;
17614;SDS011;8926;49.720;6.576;2023-07-02T03:38:41;6.57;;;5.97;;
17614;SDS011;8926;49.720;6.576;2023-07-02T03:41:06;6.43;;;5.90;;
17614;SDS011;8926;49.720;6.576;2023-07-02T03:43:31;7.20;;;6.60;;
17614;SDS011;8926;49.720;6.576;2023-07-02T03:45:57;6.63;;;6.13;;
17614;SDS011;8926;49.720;6.576;2023-07-02T03:48:22;8.07;;;7.30;;
17614;SDS011;8926;49.720;6.576;2023-07-02T03:50:48;8.77;;;7.77;;
17614;SDS011;8926;49.720;6.576;2023-07-02T03:53:13;6.60;;;6.10;;
17614;SDS011;8926;49.720;6.576;2023-07-02T03:55:38;6.00;;;5.50;;
17614;SDS011;8926;49.720;6.576;2023-07-02T03:58:05;5.70;;;5.20;;
17614;SDS011;8926;49.720;6.576;2023-07-02T04:00:30;8.43;;;7.63;;
17614;SDS011;8926;49.720;6.576;2023-07-02T04:02:55;9.30;;;8.37;;
17614;SDS011;8926;49.720;6.576;2023-07-02T04:05:21;10.63;;;8.50;;
17614;SDS011;8926;49.720;6.576;2023-07-02T04:07:46;9.30;;;7.90;;
17614;SDS011;8926;49.720;6.576;2023-07-02T04:10:12;9.33;;;8.43;;
17614;SDS011;8926;49.720;6.576;2023-07-02T04:12:37;7.00;;;6.40;;
17614;SDS011;8926;49.720;6.576;2023-07-02T04:15:03;8.63;;;7.83;;
17614;SDS011;8926;49.720;6.576;2023-07-02T04:17:30;9.90;;;8.87;;
17614;SDS011;8926;49.720;6.576;2023-07-02T04:19:55;11.67;;;10.20;;
17614;SDS011;8926;49.720;6.576;2023-07-02T04:22:21;10.63;;;9.53;;
17614;SDS011;8926;49.720;6.576;2023-07-02T04:24:46;10.87;;;8.97;;
17614;SDS011;8926;49.720;6.576;2023-07-02T04:27:14;14.33;;;10.93;;
17614;SDS011;8926;49.720;6.576;2023-07-02T04:29:42;13.40;;;11.10;;
17614;SDS011;8926;49.720;6.576;2023-07-02T04:32:08;14.67;;;10.77;;
17614;SDS011;8926;49.720;6.576;2023-07-02T04:34:33;13.57;;;10.60;;
17614;SDS011;8926;49.720;6.576;2023-07-02T04:36:59;12.47;;;10.60;;
17614;SDS011;8926;49.720;6.576;2023-07-02T04:39:25;13.73;;;10.67;;
17614;SDS011;8926;49.720;6.576;2023-07-02T04:41:50;18.23;;;12.43;;
17614;SDS011;8926;49.720;6.576;2023-07-02T04:44:17;12.87;;;11.43;;
17614;SDS011;8926;49.720;6.576;2023-07-02T04:46:42;12.60;;;11.40;;
17614;SDS011;8926;49.720;6.576;2023-07-02T04:49:08;16.83;;;12.90;;
17614;SDS011;8926;49.720;6.576;2023-07-02T04:51:33;18.93;;;13.00;;
17614;SDS011;8926;49.720;6.576;2023-07-02T04:53:58;19.90;;;13.50;;
17614;SDS011;8926;49.720;6.576;2023-07-02T04:56:24;21.33;;;13.10;;
17614;SDS011;8926;49.720;6.576;2023-07-02T04:58:49;18.73;;;12.63;;
17614;SDS011;8926;49.720;6.576;2023-07-02T05:01:14;14.10;;;12.47;;
17614;SDS011;8926;49.720;6.576;2023-07-02T05:03:40;14.97;;;12.67;;
17614;SDS011;8926;49.720;6.576;2023-07-02T05:06:05;20.93;;;13.93;;
17614;SDS011;8926;49.720;6.576;2023-07-02T05:08:30;23.47;;;14.97;;
17614;SDS011;8926;49.720;6.576;2023-07-02T05:10:56;17.80;;;14.70;;
17614;SDS011;8926;49.720;6.576;2023-07-02T05:13:21;23.53;;;15.20;;
17614;SDS011;8926;49.720;6.576;2023-07-02T05:15:46;18.20;;;14.23;;
17614;SDS011;8926;49.720;6.576;2023-07-02T05:18:12;23.50;;;15.63;;
17614;SDS011;8926;49.720;6.576;2023-07-02T05:20:37;24.43;;;15.90;;
17614;SDS011;8926;49.720;6.576;2023-07-02T05:23:03;22.77;;;15.47;;
17614;SDS011;8926;49.720;6.576;2023-07-02T05:25:28;24.77;;;15.87;;
17614;SDS011;8926;49.720;6.576;2023-07-02T05:27:53;18.00;;;15.10;;
17614;SDS011;8926;49.720;6.576;2023-07-02T05:30:19;22.57;;;15.90;;
17614;SDS011;8926;49.720;6.576;2023-07-02T05:32:44;26.37;;;16.80;;
17614;SDS011;8926;49.720;6.576;2023-07-02T05:35:09;21.77;;;15.50;;
17614;SDS011;8926;49.720;6.576;2023-07-02T05:37:34;24.27;;;16.40;;
17614;SDS011;8926;49.720;6.576;2023-07-02T05:40:00;26.10;;;17.90;;
17614;SDS011;8926;49.720;6.576;2023-07-02T05:42:25;23.37;;;15.83;;
17614;SDS011;8926;49.720;6.576;2023-07-02T05:44:50;20.87;;;15.83;;
17614;SDS011;8926;49.720;6.576;2023-07-02T05:47:16;20.60;;;15.60;;
17614;SDS011;8926;49.720;6.576;2023-07-02T05:49:42;22.50;;;16.90;;
17614;SDS011;8926;49.720;6.576;2023-07-02T05:52:07;22.00;;;16.23;;
17614;SDS011;8926;49.720;6.576;2023-07-02T05:54:33;22.73;;;17.10;;
17614;SDS011;8926;49.720;6.576;2023-07-02T05:56:58;23.67;;;16.93;;
17614;SDS011;8926;49.720;6.576;2023-07-02T05:59:23;23.70;;;17.37;;
17614;SDS011;8926;49.720;6.576;2023-07-02T06:01:49;26.73;;;17.17;;
17614;SDS011;8926;49.720;6.576;2023-07-02T06:04:14;24.73;;;18.00;;
17614;SDS011;8926;49.720;6.576;2023-07-02T06:06:39;25.97;;;18.37;;
17614;SDS011;8926;49.720;6.576;2023-07-02T06:09:05;33.40;;;19.03;;
17614;SDS011;8926;49.720;6.576;2023-07-02T06:11:30;21.93;;;17.37;;
17614;SDS011;8926;49.720;6.576;2023-07-02T06:13:55;25.60;;;18.97;;
17614;SDS011;8926;49.720;6.576;2023-07-02T06:16:21;26.03;;;19.17;;
17614;SDS011;8926;49.720;6.576;2023-07-02T06:18:46;24.67;;;17.93;;
17614;SDS011;8926;49.720;6.576;2023-07-02T06:21:11;28.27;;;19.13;;
17614;SDS011;8926;49.720;6.576;2023-07-02T06:23:43;22.47;;;17.80;;
17614;SDS011;8926;49.720;6.576;2023-07-02T06:26:08;24.50;;;18.60;;
17614;SDS011;8926;49.720;6.576;2023-07-02T06:28:34;30.17;;;19.33;;
17614;SDS011;8926;49.720;6.576;2023-07-02T06:30:59;23.40;;;17.53;;
17614;SDS011;8926;49.720;6.576;2023-07-02T06:33:25;27.60;;;19.20;;
17614;SDS011;8926;49.720;6.576;2023-07-02T06:35:50;26.43;;;18.50;;
17614;SDS011;8926;49.720;6.576;2023-07-02T06:38:16;27.83;;;20.60;;
17614;SDS011;8926;49.720;6.576;2023-07-02T06:40:41;23.27;;;17.90;;
17614;SDS011;8926;49.720;6.576;2023-07-02T06:43:06;20.63;;;17.27;;
17614;SDS011;8926;49.720;6.576;2023-07-02T06:45:31;31.50;;;20.50;;
17614;SDS011;8926;49.720;6.576;2023-07-02T06:47:57;30.03;;;20.43;;
17614;SDS011;8926;49.720;6.576;2023-07-02T06:50:22;22.70;;;17.30;;
17614;SDS011;8926;49.720;6.576;2023-07-02T06:52:47;26.40;;;19.43;;
17614;SDS011;8926;49.720;6.576;2023-07-02T06:55:13;32.60;;;21.93;;
17614;SDS011;8926;49.720;6.576;2023-07-02T06:57:42;28.30;;;19.30;;
17614;SDS011;8926;49.720;6.576;2023-07-02T07:00:09;25.70;;;18.53;;
17614;SDS011;8926;49.720;6.576;2023-07-02T07:02:35;24.20;;;18.90;;
17614;SDS011;8926;49.720;6.576;2023-07-02T07:05:00;31.50;;;21.43;;
17614;SDS011;8926;49.720;6.576;2023-07-02T07:07:25;24.00;;;18.37;;
17614;SDS011;8926;49.720;6.576;2023-07-02T07:09:51;24.13;;;17.43;;
17614;SDS011;8926;49.720;6.576;2023-07-02T07:12:16;30.63;;;20.87;;
17614;SDS011;8926;49.720;6.576;2023-07-02T07:14:41;33.27;;;22.67;;
17614;SDS011;8926;49.720;6.576;2023-07-02T07:17:07;20.70;;;18.23;;
17614;SDS011;8926;49.720;6.576;2023-07-02T07:19:32;26.40;;;20.70;;
17614;SDS011;8926;49.720;6.576;2023-07-02T07:21:58;26.70;;;20.73;;
17614;SDS011;8926;49.720;6.576;2023-07-02T07:24:23;30.93;;;21.07;;
17614;SDS011;8926;49.720;6.576;2023-07-02T07:26:48;32.43;;;21.20;;
17614;SDS011;8926;49.720;6.576;2023-07-02T07:29:14;28.33;;;20.63;;
17614;SDS011;8926;49.720;6.576;2023-07-02T07:31:39;35.07;;;22.03;;
17614;SDS011;8926;49.720;6.576;2023-07-02T07:34:05;29.47;;;21.53;;
17614;SDS011;8926;49.720;6.576;2023-07-02T07:36:30;30.30;;;21.03;;
17614;SDS011;8926;49.720;6.576;2023-07-02T07:38:55;32.53;;;21.00;;
17614;SDS011;8926;49.720;6.576;2023-07-02T07:41:20;27.40;;;20.17;;
17614;SDS011;8926;49.720;6.576;2023-07-02T07:43:46;31.97;;;21.60;;
17614;SDS011;8926;49.720;6.576;2023-07-02T07:46:11;33.57;;;22.23;;
17614;SDS011;8926;49.720;6.576;2023-07-02T07:48:36;31.37;;;20.27;;
17614;SDS011;8926;49.720;6.576;2023-07-02T07:51:02;29.73;;;21.23;;
17614;SDS011;8926;49.720;6.576;2023-07-02T07:53:27;25.33;;;19.33;;
17614;SDS011;8926;49.720;6.576;2023-07-02T07:55:53;28.00;;;20.67;;
17614;SDS011;8926;49.720;6.576;2023-07-02T07:58:18;30.60;;;22.20;;
17614;SDS011;8926;49.720;6.576;2023-07-02T08:00:47;33.53;;;22.60;;
17614;SDS011;8926;49.720;6.576;2023-07-02T08:03:12;26.97;;;20.40;;
17614;SDS011;8926;49.720;6.576;2023-07-02T08:05:37;29.00;;;21.30;;
17614;SDS011;8926;49.720;6.576;2023-07-02T08:08:03;34.17;;;22.33;;
17614;SDS011;8926;49.720;6.576;2023-07-02T08:10:28;25.03;;;20.00;;
17614;SDS011;8926;49.720;6.576;2023-07-02T08:12:54;29.40;;;20.63;;
17614;SDS011;8926;49.720;6.576;2023-07-02T08:15:19;24.57;;;19.10;;
17614;SDS011;8926;49.720;6.576;2023-07-02T08:17:44;23.23;;;18.13;;
17614;SDS011;8926;49.720;6.576;2023-07-02T08:20:10;28.37;;;20.10;;
17614;SDS011;8926;49.720;6.576;2023-07-02T08:22:37;24.67;;;19.47;;
17614;SDS011;8926;49.720;6.576;2023-07-02T08:25:02;28.57;;;20.17;;
17614;SDS011;8926;49.720;6.576;2023-07-02T08:27:28;28.83;;;20.23;;
17614;SDS011;8926;49.720;6.576;2023-07-02T08:29:53;25.30;;;19.23;;
17614;SDS011;8926;49.720;6.576;2023-07-02T08:32:18;20.80;;;17.80;;
17614;SDS011;8926;49.720;6.576;2023-07-02T08:34:44;27.20;;;19.07;;
17614;SDS011;8926;49.720;6.576;2023-07-02T08:37:09;29.83;;;20.07;;
17614;SDS011;8926;49.720;6.576;2023-07-02T08:39:34;26.97;;;20.93;;
17614;SDS011;8926;49.720;6.576;2023-07-02T08:42:02;26.93;;;18.80;;
17614;SDS011;8926;49.720;6.576;2023-07-02T08:44:27;30.70;;;21.03;;
17614;SDS011;8926;49.720;6.576;2023-07-02T08:46:53;29.30;;;21.53;;
17614;SDS011;8926;49.720;6.576;2023-07-02T08:49:21;19.53;;;17.37;;
17614;SDS011;8926;49.720;6.576;2023-07-02T08:51:46;28.20;;;20.97;;
17614;SDS011;8926;49.720;6.576;2023-07-02T08:54:12;30.37;;;20.30;;
17614;SDS011;8926;49.720;6.576;2023-07-02T08:56:39;27.30;;;19.83;;
17614;SDS011;8926;49.720;6.576;2023-07-02T08:59:07;21.17;;;16.33;;
17614;SDS011;8926;49.720;6.576;2023-07-02T09:01:43;27.90;;;19.00;;
17614;SDS011;8926;49.720;6.576;2023-07-02T09:04:14;23.70;;;18.00;;
17614;SDS011;8926;49.720;6.576;2023-07-02T09:06:39;21.67;;;17.43;;
17614;SDS011;8926;49.720;6.576;2023-07-02T09:09:05;22.60;;;18.20;;
17614;SDS011;8926;49.720;6.576;2023-07-02T09:11:30;22.80;;;18.40;;
17614;SDS011;8926;49.720;6.576;2023-07-02T09:13:56;26.43;;;19.20;;
17614;SDS011;8926;49.720;6.576;2023-07-02T09:16:25;23.60;;;17.93;;
17614;SDS011;8926;49.720;6.576;2023-07-02T09:21:25;21.20;;;15.93;;
17614;SDS011;8926;49.720;6.576;2023-07-02T09:23:52;23.33;;;17.23;;
17614;SDS011;8926;49.720;6.576;2023-07-02T09:26:21;21.20;;;16.93;;
17614;SDS011;8926;49.720;6.576;2023-07-02T09:28:47;19.87;;;15.63;;
17614;SDS011;8926;49.720;6.576;2023-07-02T09:31:12;25.17;;;18.33;;
17614;SDS011;8926;49.720;6.576;2023-07-02T09:33:37;18.27;;;15.23;;
17614;SDS011;8926;49.720;6.576;2023-07-02T09:36:03;26.30;;;18.10;;
17614;SDS011;8926;49.720;6.576;2023-07-02T09:38:29;21.87;;;17.20;;
17614;SDS011;8926;49.720;6.576;2023-07-02T09:40:54;20.03;;;16.40;;
17614;SDS011;8926;49.720;6.576;2023-07-02T09:43:20;24.03;;;16.77;;
17614;SDS011;8926;49.720;6.576;2023-07-02T09:45:47;22.83;;;16.87;;
17614;SDS011;8926;49.720;6.576;2023-07-02T09:48:15;18.60;;;15.73;;
17614;SDS011;8926;49.720;6.576;2023-07-02T09:50:44;20.63;;;16.70;;
17614;SDS011;8926;49.720;6.576;2023-07-02T09:53:11;17.47;;;15.50;;
17614;SDS011;8926;49.720;6.576;2023-07-02T09:55:43;20.97;;;16.20;;
17614;SDS011;8926;49.720;6.576;2023-07-02T09:58:09;17.37;;;15.00;;
17614;SDS011;8926;49.720;6.576;2023-07-02T10:00:35;19.77;;;16.10;;
17614;SDS011;8926;49.720;6.576;2023-07-02T10:03:00;17.53;;;15.53;;
17614;SDS011;8926;49.720;6.576;2023-07-02T10:05:27;20.60;;;16.87;;
17614;SDS011;8926;49.720;6.576;2023-07-02T10:07:56;17.40;;;15.30;;
17614;SDS011;8926;49.720;6.576;2023-07-02T10:10:29;22.40;;;15.87;;
17614;SDS011;8926;49.720;6.576;2023-07-02T10:12:55;20.60;;;15.37;;
17614;SDS011;8926;49.720;6.576;2023-07-02T10:15:24;21.57;;;15.87;;
17614;SDS011;8926;49.720;6.576;2023-07-02T10:17:54;19.63;;;15.90;;
17614;SDS011;8926;49.720;6.576;2023-07-02T10:20:30;15.63;;;14.03;;
17614;SDS011;8926;49.720;6.576;2023-07-02T10:22:58;20.53;;;16.50;;
17614;SDS011;8926;49.720;6.576;2023-07-02T10:25:24;22.50;;;15.97;;
17614;SDS011;8926;49.720;6.576;2023-07-02T10:27:50;21.67;;;16.67;;
17614;SDS011;8926;49.720;6.576;2023-07-02T10:30:15;17.37;;;13.63;;
17614;SDS011;8926;49.720;6.576;2023-07-02T10:32:41;18.33;;;15.37;;
17614;SDS011;8926;49.720;6.576;2023-07-02T10:35:16;15.37;;;13.93;;
17614;SDS011;8926;49.720;6.576;2023-07-02T10:37:42;18.97;;;16.10;;
17614;SDS011;8926;49.720;6.576;2023-07-02T10:40:08;19.47;;;16.30;;
17614;SDS011;8926;49.720;6.576;2023-07-02T10:42:47;25.10;;;16.90;;
17614;SDS011;8926;49.720;6.576;2023-07-02T10:45:13;20.20;;;16.20;;
17614;SDS011;8926;49.720;6.576;2023-07-02T10:47:40;20.37;;;15.93;;
17614;SDS011;8926;49.720;6.576;2023-07-02T10:52:43;16.47;;;13.83;;
17614;SDS011;8926;49.720;6.576;2023-07-02T10:55:08;13.27;;;11.87;;
17614;SDS011;8926;49.720;6.576;2023-07-02T10:57:33;18.43;;;14.33;;
17614;SDS011;8926;49.720;6.576;2023-07-02T11:00:05;19.20;;;14.20;;
17614;SDS011;8926;49.720;6.576;2023-07-02T11:02:39;18.20;;;13.97;;
17614;SDS011;8926;49.720;6.576;2023-07-02T11:05:05;14.57;;;12.83;;
17614;SDS011;8926;49.720;6.576;2023-07-02T11:07:38;14.13;;;12.50;;
17614;SDS011;8926;49.720;6.576;2023-07-02T11:10:04;14.17;;;11.70;;
17614;SDS011;8926;49.720;6.576;2023-07-02T11:12:31;11.33;;;10.30;;
17614;SDS011;8926;49.720;6.576;2023-07-02T11:15:15;10.77;;;9.83;;
17614;SDS011;8926;49.720;6.576;2023-07-02T11:17:44;12.90;;;11.70;;
17614;SDS011;8926;49.720;6.576;2023-07-02T11:20:10;11.50;;;10.40;;
17614;SDS011;8926;49.720;6.576;2023-07-02T11:22:37;13.10;;;11.80;;
17614;SDS011;8926;49.720;6.576;2023-07-02T11:25:13;16.07;;;11.90;;
17614;SDS011;8926;49.720;6.576;2023-07-02T11:27:43;15.33;;;12.60;;
17614;SDS011;8926;49.720;6.576;2023-07-02T11:30:09;10.90;;;9.90;;
17614;SDS011;8926;49.720;6.576;2023-07-02T11:32:51;14.33;;;12.87;;
17614;SDS011;8926;49.720;6.576;2023-07-02T11:35:18;17.00;;;14.53;;
17614;SDS011;8926;49.720;6.576;2023-07-02T11:37:45;17.17;;;13.97;;
17614;SDS011;8926;49.720;6.576;2023-07-02T11:40:11;16.90;;;13.60;;
17614;SDS011;8926;49.720;6.576;2023-07-02T11:42:38;14.37;;;12.90;;
17614;SDS011;8926;49.720;6.576;2023-07-02T11:45:03;15.93;;;13.13;;
17614;SDS011;8926;49.720;6.576;2023-07-02T11:47:29;15.70;;;13.77;;
17614;SDS011;8926;49.720;6.576;2023-07-02T11:49:54;13.90;;;12.53;;
17614;SDS011;8926;49.720;6.576;2023-07-02T11:52:20;16.10;;;12.90;;
17614;SDS011;8926;49.720;6.576;2023-07-02T11:54:45;12.67;;;11.33;;
17614;SDS011;8926;49.720;6.576;2023-07-02T11:57:11;10.03;;;9.13;;
17614;SDS011;8926;49.720;6.576;2023-07-02T11:59:37;12.60;;;11.30;;
17614;SDS011;8926;49.720;6.576;2023-07-02T12:02:03;16.57;;;12.47;;
17614;SDS011;8926;49.720;6.576;2023-07-02T12:04:28;14.57;;;11.30;;
17614;SDS011;8926;49.720;6.576;2023-07-02T12:06:54;14.60;;;10.93;;
17614;SDS011;8926;49.720;6.576;2023-07-02T12:09:19;13.17;;;11.87;;
17614;SDS011;8926;49.720;6.576;2023-07-02T12:11:44;14.60;;;12.13;;
17614;SDS011;8926;49.720;6.576;2023-07-02T12:14:11;14.30;;;11.97;;
17614;SDS011;8926;49.720;6.576;2023-07-02T12:16:36;15.87;;;12.00;;
17614;SDS011;8926;49.720;6.576;2023-07-02T12:19:01;16.50;;;12.87;;
17614;SDS011;8926;49.720;6.576;2023-07-02T12:21:27;17.00;;;12.37;;
17614;SDS011;8926;49.720;6.576;2023-07-02T12:23:52;15.73;;;12.17;;
17614;SDS011;8926;49.720;6.576;2023-07-02T12:26:18;16.03;;;12.57;;
17614;SDS011;8926;49.720;6.576;2023-07-02T12:28:43;13.50;;;11.97;;
17614;SDS011;8926;49.720;6.576;2023-07-02T12:31:09;14.87;;;12.67;;
17614;SDS011;8926;49.720;6.576;2023-07-02T12:33:35;14.97;;;11.60;;
17614;SDS011;8926;49.720;6.576;2023-07-02T12:36:00;13.57;;;12.23;;
17614;SDS011;8926;49.720;6.576;2023-07-02T12:38:25;12.10;;;10.93;;
17614;SDS011;8926;49.720;6.576;2023-07-02T12:40:51;15.07;;;12.83;;
17614;SDS011;8926;49.720;6.576;2023-07-02T12:43:16;15.70;;;13.13;;
17614;SDS011;8926;49.720;6.576;2023-07-02T12:45:41;14.70;;;12.07;;
17614;SDS011;8926;49.720;6.576;2023-07-02T12:48:07;14.83;;;11.90;;
17614;SDS011;8926;49.720;6.576;2023-07-02T12:50:32;14.50;;;12.43;;
17614;SDS011;8926;49.720;6.576;2023-07-02T12:52:57;12.77;;;11.47;;
17614;SDS011;8926;49.720;6.576;2023-07-02T12:55:23;13.87;;;12.27;;
17614;SDS011;8926;49.720;6.576;2023-07-02T12:57:48;13.33;;;10.30;;
17614;SDS011;8926;49.720;6.576;2023-07-02T13:00:13;12.27;;;11.10;;
17614;SDS011;8926;49.720;6.576;2023-07-02T13:02:39;14.23;;;11.57;;
17614;SDS011;8926;49.720;6.576;2023-07-02T13:05:04;12.90;;;11.43;;
17614;SDS011;8926;49.720;6.576;2023-07-02T13:07:30;11.37;;;10.27;;
17614;SDS011;8926;49.720;6.576;2023-07-02T13:09:55;10.27;;;9.37;;
17614;SDS011;8926;49.720;6.576;2023-07-02T13:12:21;12.83;;;10.80;;
17614;SDS011;8926;49.720;6.576;2023-07-02T13:14:46;11.07;;;9.97;;
17614;SDS011;8926;49.720;6.576;2023-07-02T13:17:11;16.73;;;12.70;;
17614;SDS011;8926;49.720;6.576;2023-07-02T13:19:37;11.33;;;10.33;;
17614;SDS011;8926;49.720;6.576;2023-07-02T13:22:02;14.53;;;12.67;;
17614;SDS011;8926;49.720;6.576;2023-07-02T13:24:31;12.10;;;10.93;;
17614;SDS011;8926;49.720;6.576;2023-07-02T13:26:59;13.13;;;11.90;;
17614;SDS011;8926;49.720;6.576;2023-07-02T13:29:27;13.57;;;11.93;;
17614;SDS011;8926;49.720;6.576;2023-07-02T13:31:52;15.60;;;12.10;;
17614;SDS011;8926;49.720;6.576;2023-07-02T13:34:17;11.23;;;9.93;;
17614;SDS011;8926;49.720;6.576;2023-07-02T13:36:43;13.33;;;11.97;;
17614;SDS011;8926;49.720;6.576;2023-07-02T13:39:08;11.77;;;10.33;;
17614;SDS011;8926;49.720;6.576;2023-07-02T13:41:33;10.57;;;9.57;;
17614;SDS011;8926;49.720;6.576;2023-07-02T13:43:59;10.77;;;9.67;;
17614;SDS011;8926;49.720;6.576;2023-07-02T13:46:24;13.00;;;11.83;;
17614;SDS011;8926;49.720;6.576;2023-07-02T13:48:49;11.47;;;10.27;;
17614;SDS011;8926;49.720;6.576;2023-07-02T13:51:15;9.40;;;8.50;;
17614;SDS011;8926;49.720;6.576;2023-07-02T13:53:40;10.00;;;9.10;;
17614;SDS011;8926;49.720;6.576;2023-07-02T13:56:05;10.93;;;9.93;;
17614;SDS011;8926;49.720;6.576;2023-07-02T14:01:22;10.63;;;9.70;;
17614;SDS011;8926;49.720;6.576;2023-07-02T14:03:48;10.97;;;9.93;;
17614;SDS011;8926;49.720;6.576;2023-07-02T14:06:13;14.83;;;12.20;;
17614;SDS011;8926;49.720;6.576;2023-07-02T14:08:39;10.43;;;9.43;;
17614;SDS011;8926;49.720;6.576;2023-07-02T14:11:04;14.93;;;12.00;;
17614;SDS011;8926;49.720;6.576;2023-07-02T14:13:29;17.70;;;13.10;;
17614;SDS011;8926;49.720;6.576;2023-07-02T14:15:56;16.63;;;12.47;;
17614;SDS011;8926;49.720;6.576;2023-07-02T14:18:21;13.63;;;11.90;;
17614;SDS011;8926;49.720;6.576;2023-07-02T14:20:47;14.77;;;12.13;;
17614;SDS011;8926;49.720;6.576;2023-07-02T14:23:12;15.17;;;12.70;;
17614;SDS011;8926;49.720;6.576;2023-07-02T14:25:37;12.97;;;10.90;;
17614;SDS011;8926;49.720;6.576;2023-07-02T14:28:03;15.13;;;11.80;;
17614;SDS011;8926;49.720;6.576;2023-07-02T14:30:29;20.33;;;11.50;;
17614;SDS011;8926;49.720;6.576;2023-07-02T14:32:54;13.73;;;11.77;;
17614;SDS011;8926;49.720;6.576;2023-07-02T14:35:19;12.60;;;11.30;;
17614;SDS011;8926;49.720;6.576;2023-07-02T14:37:47;11.73;;;10.50;;
17614;SDS011;8926;49.720;6.576;2023-07-02T14:40:12;12.80;;;11.20;;
17614;SDS011;8926;49.720;6.576;2023-07-02T14:42:38;13.03;;;10.10;;
17614;SDS011;8926;49.720;6.576;2023-07-02T14:45:03;12.60;;;10.70;;